TULLOCH (TUL)

Elevation: 515' · STANISLAUS R basin · Operator: US Bureau of Reclamation

Provisional data, subject to change.
Query executed Thursday at 19:33:40   clock

Select a sensor type for a plot of data.
Note: Reservoir Flows are daily averages.

Earlier

Date RES ELE    STORAGE    RES CHG    TOC STO    ABV TOC    OUTFLOW    INFLOW    EVAP    RIV REL    SPILL    DIS PWR   
 FEET   AF   AF   AF   AF   CFS   CFS   CFS   CFS   CFS   CFS  
01/12/2016 501.13 56530 -298 57000 -470 209 63 4 0 0 209
01/13/2016 500.93 56311 -219 57000 -689 208 100 2 0 0 208
01/14/2016 500.73 56094 -217 57000 -906 208 101 2 0 0 208
01/15/2016 500.54 55888 -206 57000 -1112 209 123 18 0 0 209
01/16/2016 500.32 55650 -238 57000 -1350 211 94 3 0 0 211
01/17/2016 500.05 55357 -293 57000 -1643 211 65 2 0 0 211
01/18/2016 500.53 55878 521 57000 -1122 211 475 1 0 0 211
01/19/2016 501.53 56972 1094 57000 -28 212 764 0 0 0 212
01/20/2016 501.64 57093 121 57000 93 207 268 0 0 0 207
01/21/2016 501.59 57038 -55 57000 38 211 187 4 0 0 211
01/22/2016 501.46 56894 -144 57000 -106 214 144 3 0 0 214
01/23/2016 501.89 57369 475 57000 369 215 457 3 0 0 215
01/24/2016 501.95 57435 66 57000 435 215 248 0 0 0 215
01/25/2016 501.93 57413 -22 57000 413 213 202 0 0 0 213
01/26/2016 501.76 57225 -188 57000 225 215 120 0 0 0 215
01/27/2016 501.65 57104 -121 57000 104 215 154 0 0 0 215
01/28/2016 501.40 56828 -276 57000 -172 215 76 0 0 0 215
01/29/2016 501.16 56563 -265 57000 -437 214 82 2 0 0 214
01/30/2016 501.27 56685 122 57000 -315 213 298 23 0 0 213
01/31/2016 501.20 56608 -77 57000 -392 209 172 2 0 0 209
02/01/2016 501.23 56641 33 57000 -359 209 227 1 0 0 209
02/02/2016 501.02 56409 -232 57000 -591 209 94 2 0 0 209
02/03/2016 500.80 56170 -239 57000 -830 210 90 0 0 0 210
02/04/2016 500.62 55975 -195 57000 -1025 213 115 0 0 0 213
02/05/2016 500.44 55780 -195 57000 -1220 210 114 2 0 0 210
02/06/2016 500.18 55498 -282 57000 -1502 121 -19 2 0 0 121
02/07/2016 499.93 55228 -270 57000 -1772 213 79 2 0 0 213
02/08/2016 499.73 55015 -213 57000 -1985 212 108 3 0 0 212
02/09/2016 499.52 54791 -224 57000 -2209 211 100 2 0 0 211
02/10/2016 499.27 54524 -267 57000 -2476 210 83 8 0 0 210
02/11/2016 -- -- -- -- -- -- -- -- -- -- --

Later | Latest

Warning! This data is preliminary and subject to revision.

Show TUL Map | Plot TUL Data | 1 Month TUL Data | Real-Time TUL Data | TUL Info